createdAt,value
2018-09-13T00:01:46.577Z,12.33
2018-09-13T00:04:18.673Z,13.40
2018-09-13T00:06:48.805Z,13.90
2018-09-13T00:09:19.064Z,14.27
2018-09-13T00:11:49.883Z,12.27
2018-09-13T00:14:21.111Z,17.23
2018-09-13T00:16:52.021Z,17.53
2018-09-13T00:19:23.837Z,13.23
2018-09-13T00:21:55.330Z,15.30
2018-09-13T00:24:25.713Z,13.37
2018-09-13T00:27:24.152Z,12.47
2018-09-13T00:29:56.034Z,13.83
2018-09-13T00:32:26.693Z,16.97
2018-09-13T00:34:58.912Z,15.57
2018-09-13T00:37:32.518Z,15.07
2018-09-13T00:40:03.353Z,13.83
2018-09-13T00:42:50.146Z,13.27
2018-09-13T00:45:39.553Z,14.40
2018-09-13T00:48:24.924Z,15.27
2018-09-13T00:50:55.863Z,12.47
2018-09-13T00:53:28.032Z,13.53
2018-09-13T00:56:02.036Z,14.20
2018-09-13T00:58:33.510Z,13.20
2018-09-13T01:01:06.075Z,12.40
2018-09-13T01:06:43.497Z,14.33
2018-09-13T01:09:18.315Z,13.20
2018-09-13T01:12:17.853Z,12.80
2018-09-13T01:14:52.608Z,15.77
2018-09-13T01:18:05.110Z,12.60
2018-09-13T01:20:39.219Z,13.90
2018-09-13T01:23:32.593Z,12.67
2018-09-13T01:26:06.780Z,12.67
2018-09-13T01:29:03.755Z,12.27
2018-09-13T01:31:35.900Z,12.03
2018-09-13T01:34:12.831Z,11.90
2018-09-13T01:36:51.035Z,12.77
2018-09-13T01:39:27.200Z,13.20
2018-09-13T01:41:58.040Z,12.80
2018-09-13T01:44:28.683Z,11.23
2018-09-13T01:47:00.504Z,10.77
2018-09-13T01:49:29.040Z,11.27
2018-09-13T01:51:59.205Z,11.87
2018-09-13T01:54:30.064Z,11.73
2018-09-13T01:57:00.099Z,13.07
2018-09-13T01:59:29.469Z,11.77
2018-09-13T02:01:57.515Z,12.10
2018-09-13T02:04:25.597Z,12.47
2018-09-13T02:06:55.343Z,10.67
2018-09-13T02:09:24.570Z,11.40
2018-09-13T02:11:53.197Z,11.50
2018-09-13T02:14:28.478Z,11.73
2018-09-13T02:16:56.675Z,10.63
2018-09-13T02:23:07.910Z,10.67
2018-09-13T02:29:03.065Z,11.33
2018-09-13T02:31:54.513Z,10.40
2018-09-13T02:34:23.732Z,12.13
2018-09-13T02:36:51.649Z,12.07
2018-09-13T02:39:19.886Z,11.07
2018-09-13T02:41:47.811Z,12.43
2018-09-13T02:44:15.942Z,13.93
2018-09-13T02:46:54.931Z,12.83
2018-09-13T02:49:27.094Z,12.83
2018-09-13T02:51:58.237Z,12.57
2018-09-13T02:54:29.683Z,11.40
2018-09-13T02:56:59.064Z,10.27
2018-09-13T02:59:28.564Z,14.03
2018-09-13T03:01:59.072Z,10.57
2018-09-13T03:04:28.912Z,9.63
2018-09-13T03:06:56.967Z,9.67
2018-09-13T03:09:30.122Z,12.27
2018-09-13T03:11:58.450Z,9.10
2018-09-13T03:14:26.752Z,10.33
2018-09-13T03:16:54.776Z,11.03
2018-09-13T03:19:30.770Z,10.17
2018-09-13T03:21:58.809Z,10.60
2018-09-13T03:24:27.040Z,10.37
2018-09-13T03:26:55.057Z,11.03
2018-09-13T03:29:49.945Z,11.33
2018-09-13T03:32:18.162Z,12.33
2018-09-13T03:34:46.786Z,10.67
2018-09-13T03:37:15.626Z,11.97
2018-09-13T03:39:43.837Z,15.43
2018-09-13T03:42:14.174Z,13.93
2018-09-13T03:44:42.920Z,10.47
2018-09-13T03:47:12.339Z,12.70
2018-09-13T03:49:40.692Z,12.27
2018-09-13T03:52:09.799Z,9.37
2018-09-13T03:54:41.277Z,8.57
2018-09-13T03:57:11.044Z,11.33
2018-09-13T03:59:44.413Z,10.30
2018-09-13T04:02:13.098Z,9.57
2018-09-13T04:04:44.582Z,11.17
2018-09-13T04:07:14.568Z,10.23
2018-09-13T04:09:42.824Z,11.77
2018-09-13T04:12:12.806Z,11.50
2018-09-13T04:14:44.225Z,10.17
2018-09-13T04:17:35.644Z,9.90
2018-09-13T04:23:20.077Z,9.73
2018-09-13T04:26:02.556Z,11.73
2018-09-13T04:28:32.477Z,11.00
2018-09-13T04:31:00.767Z,11.23
2018-09-13T04:33:31.463Z,10.73
2018-09-13T04:36:20.569Z,12.33
2018-09-13T04:42:14.154Z,15.30
2018-09-13T04:44:42.293Z,12.80
2018-09-13T04:47:10.463Z,14.90
2018-09-13T04:49:52.828Z,13.17
2018-09-13T04:52:47.426Z,14.00
2018-09-13T04:55:15.780Z,12.53
2018-09-13T04:57:47.787Z,9.80
2018-09-13T05:00:17.784Z,11.60
2018-09-13T05:02:46.333Z,11.60
2018-09-13T05:05:14.453Z,13.27
2018-09-13T05:07:42.566Z,13.53
2018-09-13T05:10:10.674Z,11.83
2018-09-13T05:13:05.930Z,12.73
2018-09-13T05:18:50.074Z,12.23
2018-09-13T05:21:25.651Z,12.10
2018-09-13T05:24:08.532Z,11.50
2018-09-13T05:26:41.771Z,10.27
2018-09-13T05:32:05.604Z,9.70
2018-09-13T05:35:06.149Z,11.67
2018-09-13T05:40:49.758Z,10.10
2018-09-13T05:43:38.566Z,10.33
2018-09-13T05:46:09.846Z,9.87
2018-09-13T05:48:43.368Z,10.43
2018-09-13T05:51:15.473Z,8.40
2018-09-13T05:53:59.917Z,10.00
2018-09-13T05:56:42.954Z,12.70
2018-09-13T05:59:18.777Z,17.27
2018-09-13T06:01:49.327Z,10.57
2018-09-13T06:04:35.401Z,11.40
2018-09-13T06:07:15.773Z,9.70
2018-09-13T06:10:10.686Z,9.23
2018-09-13T06:12:57.782Z,12.47
2018-09-13T06:15:29.066Z,9.67
2018-09-13T06:18:00.013Z,11.03
2018-09-13T06:20:28.928Z,11.57
2018-09-13T06:23:01.687Z,9.57
2018-09-13T06:25:31.689Z,9.90
2018-09-13T06:28:00.083Z,9.37
2018-09-13T06:30:29.730Z,9.23
2018-09-13T06:33:01.022Z,9.40
2018-09-13T06:35:31.104Z,16.17
2018-09-13T06:38:10.351Z,9.47
2018-09-13T06:40:42.070Z,9.40
2018-09-13T06:43:12.283Z,11.03
2018-09-13T06:45:44.448Z,11.90
2018-09-13T06:48:16.346Z,13.40
2018-09-13T06:50:45.514Z,8.57
2018-09-13T06:53:18.590Z,8.57
2018-09-13T06:58:45.903Z,7.43
2018-09-13T07:01:15.957Z,8.87
2018-09-13T07:03:56.617Z,10.13
2018-09-13T07:06:34.742Z,10.57
2018-09-13T07:09:13.315Z,11.10
2018-09-13T07:11:43.476Z,12.03
2018-09-13T07:14:18.551Z,10.43
2018-09-13T07:16:46.811Z,8.50
2018-09-13T07:19:16.609Z,10.23
2018-09-13T07:21:44.686Z,11.37
2018-09-13T07:24:19.952Z,10.67
2018-09-13T07:27:10.664Z,11.37
2018-09-13T07:29:39.328Z,12.43
2018-09-13T07:32:08.636Z,16.00
2018-09-13T07:34:40.169Z,10.37
2018-09-13T07:37:12.957Z,11.07
2018-09-13T07:39:43.127Z,13.20
2018-09-13T07:42:21.598Z,12.97
2018-09-13T07:44:53.851Z,15.27
2018-09-13T07:48:09.996Z,12.13
2018-09-13T07:54:19.564Z,12.93
2018-09-13T07:56:50.478Z,11.20
2018-09-13T07:59:20.382Z,10.53
2018-09-13T08:01:49.399Z,9.57
2018-09-13T08:04:19.613Z,8.80
2018-09-13T08:06:52.262Z,8.33
2018-09-13T08:09:20.822Z,8.57
2018-09-13T08:11:51.027Z,11.53
2018-09-13T08:14:24.337Z,8.37
2018-09-13T08:17:00.223Z,11.03
2018-09-13T08:19:30.234Z,7.23
2018-09-13T08:21:58.481Z,8.67
2018-09-13T08:24:27.095Z,9.33
2018-09-13T08:27:01.518Z,10.97
2018-09-13T08:29:31.039Z,9.67
2018-09-13T08:32:02.800Z,8.63
2018-09-13T08:35:01.905Z,12.53
2018-09-13T08:37:53.613Z,11.67
2018-09-13T08:40:39.516Z,7.90
2018-09-13T08:43:08.625Z,8.20
2018-09-13T08:45:39.442Z,7.43
2018-09-13T08:48:07.716Z,9.87
2018-09-13T08:50:45.823Z,7.33
2018-09-13T08:53:57.080Z,7.87
2018-09-13T08:56:27.932Z,6.87
2018-09-13T08:58:56.412Z,10.10
2018-09-13T09:01:25.223Z,8.30
2018-09-13T09:03:53.249Z,6.93
2018-09-13T09:06:44.989Z,9.17
2018-09-13T09:09:17.036Z,9.00
2018-09-13T09:11:47.340Z,6.80
2018-09-13T09:14:24.017Z,6.83
2018-09-13T09:16:58.071Z,7.07
2018-09-13T09:19:45.563Z,8.73
2018-09-13T09:22:15.542Z,8.23
2018-09-13T09:24:43.921Z,8.53
2018-09-13T09:27:12.316Z,7.13
2018-09-13T09:29:41.800Z,8.27
2018-09-13T09:32:13.592Z,6.80
2018-09-13T09:34:50.754Z,4.90
2018-09-13T09:37:20.480Z,5.37
2018-09-13T09:40:31.243Z,15.73
2018-09-13T09:43:01.215Z,4.90
2018-09-13T09:45:33.276Z,5.57
2018-09-13T09:48:03.674Z,5.63
2018-09-13T09:50:33.537Z,4.60
2018-09-13T09:53:04.928Z,8.33
2018-09-13T09:55:33.775Z,6.13
2018-09-13T09:58:01.915Z,4.63
2018-09-13T10:00:36.433Z,5.33
2018-09-13T10:03:06.768Z,7.77
2018-09-13T10:08:26.546Z,5.93
2018-09-13T10:10:55.312Z,3.90
2018-09-13T10:13:24.261Z,4.93
2018-09-13T10:16:14.908Z,12.87
2018-09-13T10:18:59.544Z,10.93
2018-09-13T10:21:35.480Z,7.57
2018-09-13T10:24:14.820Z,5.70
2018-09-13T10:26:51.610Z,5.20
2018-09-13T10:29:38.846Z,7.57
2018-09-13T10:32:14.787Z,5.73
2018-09-13T10:34:56.146Z,4.63
2018-09-13T10:37:31.189Z,5.20
2018-09-13T10:40:10.639Z,4.57
2018-09-13T10:43:16.717Z,4.93
2018-09-13T10:46:11.482Z,5.27
2018-09-13T10:48:46.975Z,4.40
2018-09-13T10:52:20.113Z,5.50
2018-09-13T10:54:53.532Z,5.03
2018-09-13T10:57:29.450Z,7.27
2018-09-13T11:00:28.545Z,6.27
2018-09-13T11:02:57.543Z,7.03
2018-09-13T11:05:26.235Z,5.60
2018-09-13T11:07:55.172Z,8.07
2018-09-13T11:10:27.945Z,6.77
2018-09-13T11:13:10.526Z,4.87
2018-09-13T11:18:37.384Z,7.03
2018-09-13T11:21:06.416Z,7.03
2018-09-13T11:23:37.186Z,6.50
2018-09-13T11:26:05.253Z,9.73
2018-09-13T11:28:33.287Z,8.50
2018-09-13T11:31:11.047Z,7.80
2018-09-13T11:33:39.813Z,8.20
2018-09-13T11:36:08.482Z,9.23
2018-09-13T11:38:39.291Z,8.57
2018-09-13T11:41:07.949Z,7.70
2018-09-13T11:43:37.413Z,8.97
2018-09-13T11:46:05.920Z,7.17
2018-09-13T11:48:35.169Z,10.77
2018-09-13T11:51:03.242Z,7.77
2018-09-13T11:53:31.840Z,8.53
2018-09-13T11:55:59.945Z,7.87
2018-09-13T11:58:29.781Z,7.93
2018-09-13T12:00:57.760Z,10.03
2018-09-13T12:03:25.789Z,9.70
2018-09-13T12:05:54.754Z,8.10
2018-09-13T12:08:23.593Z,8.50
2018-09-13T12:10:51.599Z,10.83
2018-09-13T12:13:19.620Z,8.23
2018-09-13T12:15:47.598Z,11.20
2018-09-13T12:18:21.472Z,9.13
2018-09-13T12:20:49.342Z,10.93
2018-09-13T12:23:17.882Z,8.63
2018-09-13T12:25:46.588Z,9.33
2018-09-13T12:28:15.716Z,9.23
2018-09-13T12:30:43.847Z,10.00
2018-09-13T12:33:12.634Z,9.33
2018-09-13T12:35:41.933Z,12.83
2018-09-13T12:38:09.939Z,10.63
2018-09-13T12:40:38.580Z,11.17
2018-09-13T12:43:07.428Z,10.93
2018-09-13T12:45:35.415Z,11.20
2018-09-13T12:48:03.415Z,12.47
2018-09-13T12:50:32.136Z,8.50
2018-09-13T12:53:00.212Z,9.93
2018-09-13T12:55:34.009Z,10.80
2018-09-13T12:58:02.896Z,11.50
2018-09-13T13:00:32.213Z,10.23
2018-09-13T13:03:04.275Z,11.50
2018-09-13T13:05:33.472Z,9.07
2018-09-13T13:08:03.271Z,11.30
2018-09-13T13:10:31.501Z,12.97
2018-09-13T13:13:02.363Z,9.20
2018-09-13T13:15:32.678Z,18.23
2018-09-13T13:18:01.417Z,12.60
2018-09-13T13:20:29.950Z,11.90
2018-09-13T13:22:58.727Z,13.63
2018-09-13T13:25:26.815Z,11.73
2018-09-13T13:27:55.138Z,11.10
2018-09-13T13:30:23.104Z,10.60
2018-09-13T13:32:51.111Z,10.63
2018-09-13T13:35:19.110Z,16.00
2018-09-13T13:37:47.884Z,12.30
2018-09-13T13:40:16.256Z,36.73
2018-09-13T13:42:44.274Z,47.10
2018-09-13T13:45:12.820Z,21.03
2018-09-13T13:47:42.614Z,13.47
2018-09-13T13:50:10.690Z,10.20
2018-09-13T13:52:38.722Z,10.97
2018-09-13T13:55:07.479Z,10.50
2018-09-13T13:57:35.572Z,9.47
2018-09-13T14:00:04.410Z,10.97
2018-09-13T14:02:32.460Z,11.83
2018-09-13T14:05:00.501Z,9.53
2018-09-13T14:07:30.376Z,10.57
2018-09-13T14:09:58.543Z,10.57
2018-09-13T14:12:27.516Z,13.17
2018-09-13T14:14:56.298Z,30.13
2018-09-13T14:17:24.404Z,21.50
2018-09-13T14:19:53.151Z,15.63
2018-09-13T14:22:22.473Z,29.27
2018-09-13T14:24:51.164Z,13.07
2018-09-13T14:27:20.005Z,12.47
2018-09-13T14:29:48.077Z,16.57
2018-09-13T14:32:16.500Z,14.73
2018-09-13T14:34:46.056Z,14.07
2018-09-13T14:37:15.549Z,12.93
2018-09-13T14:39:45.562Z,12.93
2018-09-13T14:42:15.701Z,79.80
2018-09-13T14:44:45.499Z,31.33
2018-09-13T14:47:14.115Z,17.57
2018-09-13T14:49:42.109Z,17.90
2018-09-13T14:52:11.194Z,14.93
2018-09-13T14:54:40.813Z,17.90
2018-09-13T14:57:09.903Z,12.27
2018-09-13T14:59:39.940Z,12.93
2018-09-13T15:02:08.518Z,16.47
2018-09-13T15:04:37.425Z,15.23
2018-09-13T15:07:05.603Z,10.73
2018-09-13T15:09:36.181Z,9.97
2018-09-13T15:12:04.764Z,9.57
2018-09-13T15:14:46.882Z,9.63
2018-09-13T15:17:26.412Z,10.70
2018-09-13T15:20:01.075Z,9.13
2018-09-13T15:22:34.307Z,15.90
2018-09-13T15:25:03.826Z,17.10
2018-09-13T15:27:42.131Z,16.90
2018-09-13T15:30:12.737Z,17.33
2018-09-13T15:32:41.484Z,15.87
2018-09-13T15:35:15.128Z,19.67
2018-09-13T15:37:52.981Z,17.77
2018-09-13T15:40:26.814Z,17.73
2018-09-13T15:42:57.471Z,17.23
2018-09-13T15:45:25.758Z,16.10
2018-09-13T15:47:54.343Z,19.13
2018-09-13T15:50:23.705Z,18.87
2018-09-13T15:52:53.940Z,17.37
2018-09-13T15:55:22.446Z,19.17
2018-09-13T15:57:50.510Z,19.13
2018-09-13T16:00:19.555Z,17.43
2018-09-13T16:05:17.254Z,18.53
2018-09-13T16:07:53.679Z,17.27
2018-09-13T16:10:24.785Z,16.03
2018-09-13T16:12:53.808Z,17.50
2018-09-13T16:15:25.266Z,16.37
2018-09-13T16:17:57.762Z,19.83
2018-09-13T16:20:33.403Z,18.60
2018-09-13T16:23:04.822Z,17.70
2018-09-13T16:25:34.552Z,16.80
2018-09-13T16:28:02.732Z,17.47
2018-09-13T16:30:31.794Z,22.83
2018-09-13T16:33:01.298Z,19.43
2018-09-13T16:35:29.958Z,17.20
2018-09-13T16:38:04.921Z,17.23
2018-09-13T16:40:39.654Z,18.50
2018-09-13T16:43:10.961Z,16.70
2018-09-13T16:45:39.299Z,19.83
2018-09-13T16:48:11.430Z,16.13
2018-09-13T16:50:40.753Z,19.40
2018-09-13T16:53:09.901Z,16.03
2018-09-13T16:55:38.720Z,16.13
2018-09-13T16:58:08.129Z,20.53
2018-09-13T17:00:37.314Z,19.07
2018-09-13T17:03:06.117Z,21.80
2018-09-13T17:05:37.688Z,21.30
2018-09-13T17:08:06.925Z,17.97
2018-09-13T17:10:36.097Z,21.97
2018-09-13T17:13:08.708Z,16.27
2018-09-13T17:15:37.523Z,19.90
2018-09-13T17:18:06.126Z,22.33
2018-09-13T17:20:34.249Z,17.20
2018-09-13T17:23:03.061Z,22.60
2018-09-13T17:25:32.641Z,16.77
2018-09-13T17:28:01.627Z,17.80
2018-09-13T17:30:30.507Z,18.73
2018-09-13T17:32:58.913Z,24.90
2018-09-13T17:35:27.653Z,18.60
2018-09-13T17:37:55.654Z,21.57
2018-09-13T17:40:24.216Z,23.13
2018-09-13T17:42:53.062Z,20.13
2018-09-13T17:45:21.788Z,24.53
2018-09-13T17:47:52.295Z,20.13
2018-09-13T17:50:20.825Z,20.07
2018-09-13T17:52:48.976Z,18.30
2018-09-13T17:55:16.994Z,20.93
2018-09-13T17:57:46.767Z,20.53
2018-09-13T18:00:15.289Z,21.30
2018-09-13T18:02:43.474Z,19.63
2018-09-13T18:05:11.833Z,27.40
2018-09-13T18:07:42.179Z,17.57
2018-09-13T18:10:11.385Z,17.40
2018-09-13T18:12:40.957Z,18.47
2018-09-13T18:15:09.148Z,19.07
2018-09-13T18:17:37.605Z,17.17
2018-09-13T18:20:06.136Z,19.03
2018-09-13T18:22:34.313Z,20.43
2018-09-13T18:25:03.256Z,21.07
2018-09-13T18:27:31.329Z,20.83
2018-09-13T18:29:59.432Z,21.27
2018-09-13T18:32:27.598Z,25.23
2018-09-13T18:34:56.665Z,21.23
2018-09-13T18:37:24.680Z,23.90
2018-09-13T18:39:56.893Z,23.90
2018-09-13T18:42:25.856Z,20.80
2018-09-13T18:44:55.471Z,19.73
2018-09-13T18:47:23.549Z,22.63
2018-09-13T18:49:55.500Z,22.30
2018-09-13T18:52:27.246Z,21.43
2018-09-13T18:54:58.829Z,24.27
2018-09-13T18:57:30.072Z,23.13
2018-09-13T18:59:58.797Z,20.40
2018-09-13T19:02:28.701Z,20.27
2018-09-13T19:04:58.376Z,27.87
2018-09-13T19:07:27.272Z,24.20
2018-09-13T19:09:55.297Z,19.73
2018-09-13T19:12:25.229Z,22.63
2018-09-13T19:14:54.484Z,23.40
2018-09-13T19:17:25.346Z,24.37
2018-09-13T19:19:54.261Z,24.87
2018-09-13T19:22:29.509Z,23.93
2018-09-13T19:25:00.295Z,22.53
2018-09-13T19:27:29.068Z,26.60
2018-09-13T19:29:59.043Z,24.37
2018-09-13T19:32:28.189Z,23.90
2018-09-13T19:34:59.525Z,29.47
2018-09-13T19:37:28.101Z,30.03
2018-09-13T19:39:57.152Z,23.47
2018-09-13T19:42:28.279Z,29.87
2018-09-13T19:44:56.227Z,26.37
2018-09-13T19:47:26.177Z,26.90
2018-09-13T19:49:56.425Z,25.93
2018-09-13T19:52:25.726Z,30.60
2018-09-13T19:54:54.474Z,22.43
2018-09-13T19:57:23.517Z,24.47
2018-09-13T19:59:55.261Z,31.10
2018-09-13T20:02:24.169Z,25.63
2018-09-13T20:04:52.944Z,27.87
2018-09-13T20:07:22.307Z,25.07
2018-09-13T20:09:53.296Z,25.30
2018-09-13T20:12:21.357Z,29.50
2018-09-13T20:14:52.885Z,33.97
2018-09-13T20:17:22.239Z,26.07
2018-09-13T20:19:51.297Z,23.07
2018-09-13T20:22:22.896Z,26.67
2018-09-13T20:24:50.871Z,22.27
2018-09-13T20:27:22.194Z,32.73
2018-09-13T20:29:53.564Z,24.53
2018-09-13T20:32:29.395Z,28.10
2018-09-13T20:34:58.094Z,21.30
2018-09-13T20:37:26.784Z,21.93
2018-09-13T20:39:57.338Z,23.57
2018-09-13T20:42:29.484Z,24.57
2018-09-13T20:44:58.322Z,25.73
2018-09-13T20:47:27.221Z,16.83
2018-09-13T20:50:00.570Z,22.23
2018-09-13T20:52:29.979Z,18.93
2018-09-13T20:54:59.841Z,18.43
2018-09-13T20:57:27.775Z,16.50
2018-09-13T20:59:57.751Z,16.27
2018-09-13T21:02:25.815Z,16.40
2018-09-13T21:04:55.389Z,15.17
2018-09-13T21:07:24.818Z,17.60
2018-09-13T21:09:56.769Z,12.47
2018-09-13T21:12:26.238Z,17.93
2018-09-13T21:14:56.233Z,16.17
2018-09-13T21:17:25.689Z,17.50
2018-09-13T21:19:54.695Z,20.53
2018-09-13T21:22:27.290Z,18.07
2018-09-13T21:24:56.914Z,17.47
2018-09-13T21:27:24.805Z,16.63
2018-09-13T21:29:53.551Z,16.53
2018-09-13T21:32:22.706Z,17.93
2018-09-13T21:34:50.739Z,18.40
2018-09-13T21:37:18.969Z,19.83
2018-09-13T21:39:46.897Z,19.33
2018-09-13T21:42:15.501Z,17.30
2018-09-13T21:44:43.370Z,14.90
2018-09-13T21:47:11.338Z,19.43
2018-09-13T21:52:15.574Z,15.90
2018-09-13T21:54:44.054Z,16.03
2018-09-13T21:57:11.993Z,21.93
2018-09-13T21:59:41.774Z,17.20
2018-09-13T22:02:12.591Z,19.80
2018-09-13T22:04:41.426Z,21.60
2018-09-13T22:07:09.378Z,18.17
2018-09-13T22:09:37.937Z,20.20
2018-09-13T22:12:07.986Z,19.20
2018-09-13T22:14:36.538Z,17.67
2018-09-13T22:17:05.114Z,21.87
2018-09-13T22:19:33.033Z,21.97
2018-09-13T22:22:01.072Z,20.90
2018-09-13T22:24:30.695Z,21.43
2018-09-13T22:26:58.701Z,20.23
2018-09-13T22:29:26.712Z,16.00
2018-09-13T22:31:56.278Z,20.07
2018-09-13T22:34:31.931Z,20.50
2018-09-13T22:37:01.334Z,16.73
2018-09-13T22:39:30.945Z,16.97
2018-09-13T22:41:59.897Z,16.13
2018-09-13T22:44:34.383Z,20.50
2018-09-13T22:47:04.446Z,21.80
2018-09-13T22:49:35.202Z,17.67
2018-09-13T22:52:04.049Z,17.10
2018-09-13T22:54:34.634Z,15.97
2018-09-13T22:57:03.318Z,14.37
2018-09-13T22:59:31.263Z,14.67
2018-09-13T23:01:59.912Z,16.60
2018-09-13T23:04:28.481Z,16.40
2018-09-13T23:06:57.317Z,14.67
2018-09-13T23:09:43.336Z,16.60
2018-09-13T23:12:11.926Z,13.80
2018-09-13T23:14:43.222Z,18.53
2018-09-13T23:17:11.749Z,15.07
2018-09-13T23:19:41.113Z,14.83
2018-09-13T23:22:10.992Z,13.67
2018-09-13T23:24:39.496Z,17.80
2018-09-13T23:27:08.974Z,18.37
2018-09-13T23:29:38.138Z,16.90
2018-09-13T23:32:06.661Z,17.30
2018-09-13T23:34:34.714Z,17.00
2018-09-13T23:37:02.585Z,17.83
2018-09-13T23:39:31.448Z,17.53
2018-09-13T23:41:59.689Z,16.57
2018-09-13T23:44:29.005Z,19.07
2018-09-13T23:46:57.224Z,17.93
2018-09-13T23:49:28.674Z,17.97
2018-09-13T23:51:56.735Z,16.97
2018-09-13T23:54:28.423Z,20.47
2018-09-13T23:56:57.076Z,17.40
2018-09-13T23:59:25.020Z,16.47
